BERICHT 22/12/2019: De oude website is tijdelijk weer online! In 2020 zal er een volledig nieuwe site uitgerold worden, die nu volop in ontwikkeling is! Ondertussen blijven onderstaande metingen wel actueel!

Weerstation Zoersel Live Webcam Weerstation Zoersel Live Webcam


sateliet wolkenradar  


Doneren

CBI


onweer radar meer informatie blitzortung!


regen radar  rain snow radar


Enkele sfeerfotootjes...  

We konden geen weer-waarchuwingen ophalen. Ga rechtstreeks naar de Meteoalarm site : www.meteoalarm.eu en controleer daar .

metar rapporten vliegvelden

   
EBAW - Antwerp
gewijzigd: 29-03-2023 12:50
grotendeels bewolkt  
grotendeels bewolkt  
   wind: zzw 20,4 km/h
wind: zzw 20,4 km/h
temperatuur: 13°C
dauwpunt: 7°C
vochtigheid: 67%
barometer: 1014 hPa
bewolking: grotendeels bewolkt
zicht: meer dan 10 km
bewolking: licht bewolkt 3000 ft,
grotendeels bewolkt 3500 ft
EBAW 291050Z 20011KT 9999 FEW030 BKN035 13/07 Q1014 NOSIG
EBLG - Li├Ęge
gewijzigd: 29-03-2023 12:50
grotendeels bewolkt  
grotendeels bewolkt  
   wind: zzw 18,5 km/h
wind: zzw 18,5 km/h
temperatuur: 12°C
dauwpunt: 6°C
vochtigheid: 67%
barometer: 1015 hPa
bewolking: grotendeels bewolkt
zicht: meer dan 10 km
bewolking: grotendeels bewolkt 2300 ft
EBLG 291050Z 21010KT 170V230 9999 BKN023 12/06 Q1015 NOSIG
EBCV - Mons/Bergen
gewijzigd: 29-03-2023 12:55
  
  
   wind: zzw 22,2 km/h
wind: zzw 22,2 km/h
temperatuur: 13°C
dauwpunt: 9°C
vochtigheid: 77%
barometer: 1014 hPa
zicht: meer dan 10 km
EBCV 291055Z AUTO 20012KT 9999 /// 13/09 Q1014 BLU
EHBK - Maastricht
gewijzigd: 29-03-2023 12:55
bewolking  
bewolking  
   wind: zzw 20,4 km/h
wind: zzw 20,4 km/h
temperatuur: 12°C
dauwpunt: 6°C
vochtigheid: 67%
barometer: 1015 hPa
bewolking: bewolking
zicht: meer dan 10 km
bewolking: bewolking 2100 ft
EHBK 291055Z AUTO 21011KT 180V240 9999 OVC021 12/06 Q1015 NOSIG
ELLX - Luxemburg
gewijzigd: 29-03-2023 12:50
gedeeltelijk bewolkt  
gedeeltelijk bewolkt  
   wind: zw 20,4 km/h
wind: zw 20,4 km/h
temperatuur: 12°C
dauwpunt: 5°C
vochtigheid: 63%
barometer: 1016 hPa
bewolking: gedeeltelijk bewolkt
zicht: meer dan 10 km
bewolking: gedeeltelijk bewolkt 2600 ft
ELLX 291050Z 23011KT 9999 SCT026 12/05 Q1016 NOSIG
EBOS - Oostende
gewijzigd: 29-03-2023 12:50
grotendeels bewolkt  
grotendeels bewolkt  
   wind: zzw 18,5 km/h
wind: zzw 18,5 km/h
temperatuur: 13°C
dauwpunt: 9°C
vochtigheid: 77%
barometer: 1013 hPa
bewolking: grotendeels bewolkt
zicht: meer dan 10 km
bewolking: licht bewolkt 1300 ft,
grotendeels bewolkt 4200 ft
EBOS 291050Z 20010KT 9999 FEW013 BKN042 13/09 Q1013 NOSIG

script ontwikkeld door  Saratoga-weather.org aangepast voor de template door  Weerstation Leuven